sensor_id;sensor_type;location;lat;lon;timestamp;P1;durP1;ratioP1;P2;durP2;ratioP2
15043;SDS011;7619;48.562;8.910;2023-12-20T00:01:05;1.30;;;0.83;;
15043;SDS011;7619;48.562;8.910;2023-12-20T00:03:33;0.67;;;0.67;;
15043;SDS011;7619;48.562;8.910;2023-12-20T00:06:02;1.10;;;0.80;;
15043;SDS011;7619;48.562;8.910;2023-12-20T00:08:30;0.57;;;0.57;;
15043;SDS011;7619;48.562;8.910;2023-12-20T00:10:58;0.67;;;0.67;;
15043;SDS011;7619;48.562;8.910;2023-12-20T00:13:26;1.27;;;1.10;;
15043;SDS011;7619;48.562;8.910;2023-12-20T00:15:54;0.40;;;0.40;;
15043;SDS011;7619;48.562;8.910;2023-12-20T00:18:22;0.67;;;0.67;;
15043;SDS011;7619;48.562;8.910;2023-12-20T00:20:50;0.37;;;0.37;;
15043;SDS011;7619;48.562;8.910;2023-12-20T00:23:18;1.40;;;0.70;;
15043;SDS011;7619;48.562;8.910;2023-12-20T00:25:46;0.43;;;0.43;;
15043;SDS011;7619;48.562;8.910;2023-12-20T00:28:14;1.23;;;0.60;;
15043;SDS011;7619;48.562;8.910;2023-12-20T00:30:42;0.80;;;0.77;;
15043;SDS011;7619;48.562;8.910;2023-12-20T00:33:10;0.60;;;0.43;;
15043;SDS011;7619;48.562;8.910;2023-12-20T00:35:39;0.33;;;0.33;;
15043;SDS011;7619;48.562;8.910;2023-12-20T00:38:07;0.50;;;0.50;;
15043;SDS011;7619;48.562;8.910;2023-12-20T00:40:36;0.67;;;0.40;;
15043;SDS011;7619;48.562;8.910;2023-12-20T00:43:04;0.50;;;0.50;;
15043;SDS011;7619;48.562;8.910;2023-12-20T00:45:33;0.90;;;0.70;;
15043;SDS011;7619;48.562;8.910;2023-12-20T00:48:01;0.50;;;0.50;;
15043;SDS011;7619;48.562;8.910;2023-12-20T00:50:29;0.40;;;0.40;;
15043;SDS011;7619;48.562;8.910;2023-12-20T00:52:57;0.53;;;0.50;;
15043;SDS011;7619;48.562;8.910;2023-12-20T00:55:25;0.43;;;0.43;;
15043;SDS011;7619;48.562;8.910;2023-12-20T00:57:53;0.57;;;0.47;;
15043;SDS011;7619;48.562;8.910;2023-12-20T01:00:21;0.63;;;0.60;;
15043;SDS011;7619;48.562;8.910;2023-12-20T01:02:49;0.60;;;0.60;;
15043;SDS011;7619;48.562;8.910;2023-12-20T01:05:18;4.17;;;0.90;;
15043;SDS011;7619;48.562;8.910;2023-12-20T01:07:48;0.57;;;0.57;;
15043;SDS011;7619;48.562;8.910;2023-12-20T01:10:16;0.37;;;0.30;;
15043;SDS011;7619;48.562;8.910;2023-12-20T01:12:44;2.00;;;0.70;;
15043;SDS011;7619;48.562;8.910;2023-12-20T01:15:12;0.83;;;0.80;;
15043;SDS011;7619;48.562;8.910;2023-12-20T01:17:40;0.60;;;0.57;;
15043;SDS011;7619;48.562;8.910;2023-12-20T01:20:09;0.70;;;0.60;;
15043;SDS011;7619;48.562;8.910;2023-12-20T01:22:37;0.57;;;0.57;;
15043;SDS011;7619;48.562;8.910;2023-12-20T01:25:05;0.60;;;0.60;;
15043;SDS011;7619;48.562;8.910;2023-12-20T01:27:34;0.60;;;0.60;;
15043;SDS011;7619;48.562;8.910;2023-12-20T01:30:02;0.70;;;0.67;;
15043;SDS011;7619;48.562;8.910;2023-12-20T01:32:30;1.43;;;0.73;;
15043;SDS011;7619;48.562;8.910;2023-12-20T01:34:58;1.10;;;0.57;;
15043;SDS011;7619;48.562;8.910;2023-12-20T01:37:26;1.13;;;1.03;;
15043;SDS011;7619;48.562;8.910;2023-12-20T01:39:56;1.07;;;0.77;;
15043;SDS011;7619;48.562;8.910;2023-12-20T01:42:24;3.10;;;0.73;;
15043;SDS011;7619;48.562;8.910;2023-12-20T01:44:52;0.50;;;0.50;;
15043;SDS011;7619;48.562;8.910;2023-12-20T01:47:20;0.77;;;0.60;;
15043;SDS011;7619;48.562;8.910;2023-12-20T01:49:48;0.70;;;0.70;;
15043;SDS011;7619;48.562;8.910;2023-12-20T01:52:17;0.60;;;0.60;;
15043;SDS011;7619;48.562;8.910;2023-12-20T01:54:45;0.97;;;0.80;;
15043;SDS011;7619;48.562;8.910;2023-12-20T01:57:13;0.47;;;0.47;;
15043;SDS011;7619;48.562;8.910;2023-12-20T01:59:42;0.70;;;0.70;;
15043;SDS011;7619;48.562;8.910;2023-12-20T02:02:11;0.60;;;0.60;;
15043;SDS011;7619;48.562;8.910;2023-12-20T02:04:39;0.83;;;0.83;;
15043;SDS011;7619;48.562;8.910;2023-12-20T02:07:07;0.83;;;0.70;;
15043;SDS011;7619;48.562;8.910;2023-12-20T02:09:36;0.80;;;0.67;;
15043;SDS011;7619;48.562;8.910;2023-12-20T02:12:04;0.70;;;0.70;;
15043;SDS011;7619;48.562;8.910;2023-12-20T02:14:33;1.23;;;0.77;;
15043;SDS011;7619;48.562;8.910;2023-12-20T02:17:01;0.70;;;0.70;;
15043;SDS011;7619;48.562;8.910;2023-12-20T02:19:29;1.47;;;0.90;;
15043;SDS011;7619;48.562;8.910;2023-12-20T02:22:05;0.40;;;0.40;;
15043;SDS011;7619;48.562;8.910;2023-12-20T02:24:33;0.60;;;0.60;;
15043;SDS011;7619;48.562;8.910;2023-12-20T02:27:01;0.93;;;0.37;;
15043;SDS011;7619;48.562;8.910;2023-12-20T02:29:29;0.57;;;0.37;;
15043;SDS011;7619;48.562;8.910;2023-12-20T02:31:57;0.60;;;0.47;;
15043;SDS011;7619;48.562;8.910;2023-12-20T02:34:25;3.03;;;0.40;;
15043;SDS011;7619;48.562;8.910;2023-12-20T02:36:54;0.30;;;0.30;;
15043;SDS011;7619;48.562;8.910;2023-12-20T02:39:22;0.67;;;0.67;;
15043;SDS011;7619;48.562;8.910;2023-12-20T02:41:50;0.30;;;0.30;;
15043;SDS011;7619;48.562;8.910;2023-12-20T02:44:18;0.60;;;0.50;;
15043;SDS011;7619;48.562;8.910;2023-12-20T02:46:46;0.60;;;0.37;;
15043;SDS011;7619;48.562;8.910;2023-12-20T02:49:14;0.80;;;0.60;;
15043;SDS011;7619;48.562;8.910;2023-12-20T02:51:42;0.57;;;0.53;;
15043;SDS011;7619;48.562;8.910;2023-12-20T02:54:10;0.20;;;0.20;;
15043;SDS011;7619;48.562;8.910;2023-12-20T02:56:38;0.30;;;0.30;;
15043;SDS011;7619;48.562;8.910;2023-12-20T02:59:06;0.20;;;0.20;;
15043;SDS011;7619;48.562;8.910;2023-12-20T03:01:35;0.40;;;0.40;;
15043;SDS011;7619;48.562;8.910;2023-12-20T03:04:05;0.30;;;0.30;;
15043;SDS011;7619;48.562;8.910;2023-12-20T03:06:32;0.50;;;0.50;;
15043;SDS011;7619;48.562;8.910;2023-12-20T03:09:00;0.40;;;0.40;;
15043;SDS011;7619;48.562;8.910;2023-12-20T03:11:29;0.40;;;0.30;;
15043;SDS011;7619;48.562;8.910;2023-12-20T03:13:57;0.30;;;0.30;;
15043;SDS011;7619;48.562;8.910;2023-12-20T03:16:25;0.57;;;0.50;;
15043;SDS011;7619;48.562;8.910;2023-12-20T03:18:53;0.30;;;0.30;;
15043;SDS011;7619;48.562;8.910;2023-12-20T03:21:21;0.30;;;0.30;;
15043;SDS011;7619;48.562;8.910;2023-12-20T03:23:49;0.20;;;0.10;;
15043;SDS011;7619;48.562;8.910;2023-12-20T03:26:17;0.50;;;0.30;;
15043;SDS011;7619;48.562;8.910;2023-12-20T03:28:45;0.30;;;0.30;;
15043;SDS011;7619;48.562;8.910;2023-12-20T03:31:15;0.20;;;0.20;;
15043;SDS011;7619;48.562;8.910;2023-12-20T03:33:43;0.60;;;0.20;;
15043;SDS011;7619;48.562;8.910;2023-12-20T03:36:11;0.20;;;0.20;;
15043;SDS011;7619;48.562;8.910;2023-12-20T03:38:39;0.10;;;0.10;;
15043;SDS011;7619;48.562;8.910;2023-12-20T03:41:07;0.10;;;0.10;;
15043;SDS011;7619;48.562;8.910;2023-12-20T03:43:35;0.10;;;0.10;;
15043;SDS011;7619;48.562;8.910;2023-12-20T03:46:03;0.10;;;0.10;;
15043;SDS011;7619;48.562;8.910;2023-12-20T03:48:31;0.20;;;0.20;;
15043;SDS011;7619;48.562;8.910;2023-12-20T03:50:59;0.20;;;0.20;;
15043;SDS011;7619;48.562;8.910;2023-12-20T03:53:27;2.17;;;1.57;;
15043;SDS011;7619;48.562;8.910;2023-12-20T03:55:55;0.37;;;0.37;;
15043;SDS011;7619;48.562;8.910;2023-12-20T03:58:23;0.23;;;0.23;;
15043;SDS011;7619;48.562;8.910;2023-12-20T04:00:51;0.73;;;0.30;;
15043;SDS011;7619;48.562;8.910;2023-12-20T04:03:19;0.30;;;0.30;;
15043;SDS011;7619;48.562;8.910;2023-12-20T04:05:47;1.93;;;0.40;;
15043;SDS011;7619;48.562;8.910;2023-12-20T04:08:15;0.00;;;0.00;;
15043;SDS011;7619;48.562;8.910;2023-12-20T04:10:43;2.03;;;0.37;;
15043;SDS011;7619;48.562;8.910;2023-12-20T04:13:11;0.30;;;0.30;;
15043;SDS011;7619;48.562;8.910;2023-12-20T04:15:40;0.27;;;0.17;;
15043;SDS011;7619;48.562;8.910;2023-12-20T04:18:08;1.67;;;0.53;;
15043;SDS011;7619;48.562;8.910;2023-12-20T04:20:36;0.10;;;0.10;;
15043;SDS011;7619;48.562;8.910;2023-12-20T04:23:04;0.30;;;0.30;;
15043;SDS011;7619;48.562;8.910;2023-12-20T04:25:32;0.13;;;0.13;;
15043;SDS011;7619;48.562;8.910;2023-12-20T04:28:00;0.30;;;0.30;;
15043;SDS011;7619;48.562;8.910;2023-12-20T04:30:28;0.40;;;0.40;;
15043;SDS011;7619;48.562;8.910;2023-12-20T04:32:56;0.23;;;0.20;;
15043;SDS011;7619;48.562;8.910;2023-12-20T04:35:24;0.20;;;0.20;;
15043;SDS011;7619;48.562;8.910;2023-12-20T04:37:52;0.30;;;0.30;;
15043;SDS011;7619;48.562;8.910;2023-12-20T04:40:20;1.27;;;0.57;;
15043;SDS011;7619;48.562;8.910;2023-12-20T04:42:49;0.40;;;0.30;;
15043;SDS011;7619;48.562;8.910;2023-12-20T04:45:17;0.33;;;0.33;;
15043;SDS011;7619;48.562;8.910;2023-12-20T04:47:46;0.60;;;0.20;;
15043;SDS011;7619;48.562;8.910;2023-12-20T04:50:14;0.20;;;0.20;;
15043;SDS011;7619;48.562;8.910;2023-12-20T04:52:42;0.20;;;0.20;;
15043;SDS011;7619;48.562;8.910;2023-12-20T04:55:10;1.03;;;0.30;;
15043;SDS011;7619;48.562;8.910;2023-12-20T04:57:38;2.60;;;0.33;;
15043;SDS011;7619;48.562;8.910;2023-12-20T05:00:07;0.47;;;0.40;;
15043;SDS011;7619;48.562;8.910;2023-12-20T05:02:35;0.30;;;0.30;;
15043;SDS011;7619;48.562;8.910;2023-12-20T05:05:04;0.50;;;0.30;;
15043;SDS011;7619;48.562;8.910;2023-12-20T05:07:32;0.30;;;0.30;;
15043;SDS011;7619;48.562;8.910;2023-12-20T05:10:00;0.30;;;0.30;;
15043;SDS011;7619;48.562;8.910;2023-12-20T05:12:28;0.30;;;0.30;;
15043;SDS011;7619;48.562;8.910;2023-12-20T05:14:57;2.97;;;0.33;;
15043;SDS011;7619;48.562;8.910;2023-12-20T05:17:26;0.30;;;0.30;;
15043;SDS011;7619;48.562;8.910;2023-12-20T05:19:54;0.30;;;0.30;;
15043;SDS011;7619;48.562;8.910;2023-12-20T05:22:22;0.30;;;0.30;;
15043;SDS011;7619;48.562;8.910;2023-12-20T05:24:50;0.63;;;0.50;;
15043;SDS011;7619;48.562;8.910;2023-12-20T05:27:18;0.53;;;0.53;;
15043;SDS011;7619;48.562;8.910;2023-12-20T05:29:46;0.67;;;0.67;;
15043;SDS011;7619;48.562;8.910;2023-12-20T05:32:14;0.90;;;0.70;;
15043;SDS011;7619;48.562;8.910;2023-12-20T05:34:42;0.60;;;0.60;;
15043;SDS011;7619;48.562;8.910;2023-12-20T05:37:10;0.83;;;0.63;;
15043;SDS011;7619;48.562;8.910;2023-12-20T05:39:38;0.80;;;0.80;;
15043;SDS011;7619;48.562;8.910;2023-12-20T05:42:06;0.40;;;0.40;;
15043;SDS011;7619;48.562;8.910;2023-12-20T05:44:35;0.90;;;0.60;;
15043;SDS011;7619;48.562;8.910;2023-12-20T05:47:03;0.67;;;0.60;;
15043;SDS011;7619;48.562;8.910;2023-12-20T05:49:31;0.53;;;0.53;;
15043;SDS011;7619;48.562;8.910;2023-12-20T05:51:59;0.80;;;0.80;;
15043;SDS011;7619;48.562;8.910;2023-12-20T05:54:27;1.30;;;1.03;;
15043;SDS011;7619;48.562;8.910;2023-12-20T05:56:55;1.13;;;0.93;;
15043;SDS011;7619;48.562;8.910;2023-12-20T05:59:23;2.87;;;1.40;;
15043;SDS011;7619;48.562;8.910;2023-12-20T06:01:51;4.43;;;1.57;;
15043;SDS011;7619;48.562;8.910;2023-12-20T06:04:19;1.17;;;0.87;;
15043;SDS011;7619;48.562;8.910;2023-12-20T06:06:48;0.63;;;0.40;;
15043;SDS011;7619;48.562;8.910;2023-12-20T06:09:16;0.67;;;0.67;;
15043;SDS011;7619;48.562;8.910;2023-12-20T06:11:44;0.60;;;0.60;;
15043;SDS011;7619;48.562;8.910;2023-12-20T06:14:12;0.57;;;0.57;;
15043;SDS011;7619;48.562;8.910;2023-12-20T06:16:40;0.60;;;0.60;;
15043;SDS011;7619;48.562;8.910;2023-12-20T06:19:08;1.10;;;1.00;;
15043;SDS011;7619;48.562;8.910;2023-12-20T06:21:36;3.67;;;1.30;;
15043;SDS011;7619;48.562;8.910;2023-12-20T06:24:05;1.10;;;1.00;;
15043;SDS011;7619;48.562;8.910;2023-12-20T06:26:33;1.00;;;0.90;;
15043;SDS011;7619;48.562;8.910;2023-12-20T06:29:01;0.80;;;0.70;;
15043;SDS011;7619;48.562;8.910;2023-12-20T06:31:29;0.83;;;0.83;;
15043;SDS011;7619;48.562;8.910;2023-12-20T06:33:59;2.50;;;1.07;;
15043;SDS011;7619;48.562;8.910;2023-12-20T06:36:27;0.70;;;0.70;;
15043;SDS011;7619;48.562;8.910;2023-12-20T06:38:55;0.80;;;0.80;;
15043;SDS011;7619;48.562;8.910;2023-12-20T06:41:23;1.73;;;1.07;;
15043;SDS011;7619;48.562;8.910;2023-12-20T06:43:51;2.00;;;1.23;;
15043;SDS011;7619;48.562;8.910;2023-12-20T06:46:19;1.20;;;1.00;;
15043;SDS011;7619;48.562;8.910;2023-12-20T06:48:47;2.10;;;1.20;;
15043;SDS011;7619;48.562;8.910;2023-12-20T06:51:16;1.40;;;1.30;;
15043;SDS011;7619;48.562;8.910;2023-12-20T06:53:44;0.70;;;0.70;;
15043;SDS011;7619;48.562;8.910;2023-12-20T06:56:12;2.77;;;1.20;;
15043;SDS011;7619;48.562;8.910;2023-12-20T06:58:40;1.03;;;0.90;;
15043;SDS011;7619;48.562;8.910;2023-12-20T07:01:11;2.27;;;1.60;;
15043;SDS011;7619;48.562;8.910;2023-12-20T07:03:39;1.87;;;1.20;;
15043;SDS011;7619;48.562;8.910;2023-12-20T07:06:07;2.80;;;2.00;;
15043;SDS011;7619;48.562;8.910;2023-12-20T07:08:35;4.83;;;2.20;;
15043;SDS011;7619;48.562;8.910;2023-12-20T07:11:03;2.53;;;2.00;;
15043;SDS011;7619;48.562;8.910;2023-12-20T07:13:31;1.47;;;1.37;;
15043;SDS011;7619;48.562;8.910;2023-12-20T07:16:00;2.27;;;1.97;;
15043;SDS011;7619;48.562;8.910;2023-12-20T07:18:28;1.27;;;0.90;;
15043;SDS011;7619;48.562;8.910;2023-12-20T07:20:56;2.53;;;1.23;;
15043;SDS011;7619;48.562;8.910;2023-12-20T07:23:24;1.57;;;0.97;;
15043;SDS011;7619;48.562;8.910;2023-12-20T07:25:53;1.47;;;1.00;;
15043;SDS011;7619;48.562;8.910;2023-12-20T07:28:21;1.13;;;0.80;;
15043;SDS011;7619;48.562;8.910;2023-12-20T07:30:49;1.57;;;1.13;;
15043;SDS011;7619;48.562;8.910;2023-12-20T07:33:17;2.97;;;1.20;;
15043;SDS011;7619;48.562;8.910;2023-12-20T07:35:45;1.20;;;1.10;;
15043;SDS011;7619;48.562;8.910;2023-12-20T07:38:13;1.07;;;0.93;;
15043;SDS011;7619;48.562;8.910;2023-12-20T07:40:41;3.67;;;1.93;;
15043;SDS011;7619;48.562;8.910;2023-12-20T07:43:09;3.33;;;2.30;;
15043;SDS011;7619;48.562;8.910;2023-12-20T07:45:37;4.57;;;2.00;;
15043;SDS011;7619;48.562;8.910;2023-12-20T07:48:07;4.70;;;1.63;;
15043;SDS011;7619;48.562;8.910;2023-12-20T07:50:35;2.60;;;1.80;;
15043;SDS011;7619;48.562;8.910;2023-12-20T07:53:03;3.43;;;2.13;;
15043;SDS011;7619;48.562;8.910;2023-12-20T07:55:31;3.83;;;2.27;;
15043;SDS011;7619;48.562;8.910;2023-12-20T07:57:59;3.40;;;2.27;;
15043;SDS011;7619;48.562;8.910;2023-12-20T08:00:27;7.47;;;1.90;;
15043;SDS011;7619;48.562;8.910;2023-12-20T08:02:56;4.20;;;1.83;;
15043;SDS011;7619;48.562;8.910;2023-12-20T08:05:24;2.47;;;1.60;;
15043;SDS011;7619;48.562;8.910;2023-12-20T08:07:52;3.17;;;1.70;;
15043;SDS011;7619;48.562;8.910;2023-12-20T08:10:20;1.70;;;1.30;;
15043;SDS011;7619;48.562;8.910;2023-12-20T08:12:49;1.87;;;1.73;;
15043;SDS011;7619;48.562;8.910;2023-12-20T08:15:17;2.47;;;1.30;;
15043;SDS011;7619;48.562;8.910;2023-12-20T08:17:45;1.50;;;1.30;;
15043;SDS011;7619;48.562;8.910;2023-12-20T08:20:13;1.07;;;0.97;;
15043;SDS011;7619;48.562;8.910;2023-12-20T08:22:41;0.80;;;0.80;;
15043;SDS011;7619;48.562;8.910;2023-12-20T08:25:09;1.20;;;1.10;;
15043;SDS011;7619;48.562;8.910;2023-12-20T08:27:38;0.80;;;0.80;;
15043;SDS011;7619;48.562;8.910;2023-12-20T08:30:07;0.70;;;0.60;;
15043;SDS011;7619;48.562;8.910;2023-12-20T08:32:35;2.17;;;1.70;;
15043;SDS011;7619;48.562;8.910;2023-12-20T08:35:04;1.43;;;1.33;;
15043;SDS011;7619;48.562;8.910;2023-12-20T08:37:32;1.50;;;1.40;;
15043;SDS011;7619;48.562;8.910;2023-12-20T08:40:00;1.60;;;1.10;;
15043;SDS011;7619;48.562;8.910;2023-12-20T08:42:29;1.40;;;1.20;;
15043;SDS011;7619;48.562;8.910;2023-12-20T08:44:58;1.50;;;1.00;;
15043;SDS011;7619;48.562;8.910;2023-12-20T08:47:26;1.40;;;0.90;;
15043;SDS011;7619;48.562;8.910;2023-12-20T08:49:54;3.27;;;1.40;;
15043;SDS011;7619;48.562;8.910;2023-12-20T08:52:23;1.43;;;1.10;;
15043;SDS011;7619;48.562;8.910;2023-12-20T08:54:51;2.00;;;1.77;;
15043;SDS011;7619;48.562;8.910;2023-12-20T08:57:20;1.30;;;1.20;;
15043;SDS011;7619;48.562;8.910;2023-12-20T08:59:50;1.83;;;1.13;;
15043;SDS011;7619;48.562;8.910;2023-12-20T09:02:18;1.23;;;1.10;;
15043;SDS011;7619;48.562;8.910;2023-12-20T09:04:46;2.17;;;1.40;;
15043;SDS011;7619;48.562;8.910;2023-12-20T09:07:23;3.50;;;1.40;;
15043;SDS011;7619;48.562;8.910;2023-12-20T09:09:51;1.23;;;1.00;;
15043;SDS011;7619;48.562;8.910;2023-12-20T09:12:20;1.40;;;1.13;;
15043;SDS011;7619;48.562;8.910;2023-12-20T09:14:48;4.57;;;1.03;;
15043;SDS011;7619;48.562;8.910;2023-12-20T09:17:17;2.13;;;1.03;;
15043;SDS011;7619;48.562;8.910;2023-12-20T09:19:45;6.43;;;1.87;;
15043;SDS011;7619;48.562;8.910;2023-12-20T09:22:13;0.87;;;0.73;;
15043;SDS011;7619;48.562;8.910;2023-12-20T09:24:41;3.20;;;1.27;;
15043;SDS011;7619;48.562;8.910;2023-12-20T09:27:09;1.23;;;0.83;;
15043;SDS011;7619;48.562;8.910;2023-12-20T09:29:37;1.53;;;0.87;;
15043;SDS011;7619;48.562;8.910;2023-12-20T09:32:06;3.27;;;1.00;;
15043;SDS011;7619;48.562;8.910;2023-12-20T09:34:34;3.93;;;1.37;;
15043;SDS011;7619;48.562;8.910;2023-12-20T09:37:04;3.77;;;1.10;;
15043;SDS011;7619;48.562;8.910;2023-12-20T09:39:32;1.17;;;1.07;;
15043;SDS011;7619;48.562;8.910;2023-12-20T09:42:00;1.47;;;1.03;;
15043;SDS011;7619;48.562;8.910;2023-12-20T09:44:29;3.57;;;1.30;;
15043;SDS011;7619;48.562;8.910;2023-12-20T09:46:57;2.97;;;1.27;;
15043;SDS011;7619;48.562;8.910;2023-12-20T09:49:25;2.90;;;1.03;;
15043;SDS011;7619;48.562;8.910;2023-12-20T09:51:55;1.23;;;1.13;;
15043;SDS011;7619;48.562;8.910;2023-12-20T09:54:23;1.80;;;1.17;;
15043;SDS011;7619;48.562;8.910;2023-12-20T09:56:51;4.17;;;1.03;;
15043;SDS011;7619;48.562;8.910;2023-12-20T09:59:19;4.30;;;1.30;;
15043;SDS011;7619;48.562;8.910;2023-12-20T10:01:47;2.53;;;1.00;;
15043;SDS011;7619;48.562;8.910;2023-12-20T10:04:16;3.63;;;1.03;;
15043;SDS011;7619;48.562;8.910;2023-12-20T10:06:44;2.10;;;1.10;;
15043;SDS011;7619;48.562;8.910;2023-12-20T10:09:12;3.47;;;1.20;;
15043;SDS011;7619;48.562;8.910;2023-12-20T10:11:41;2.53;;;1.10;;
15043;SDS011;7619;48.562;8.910;2023-12-20T10:14:10;3.37;;;0.90;;
15043;SDS011;7619;48.562;8.910;2023-12-20T10:16:38;2.20;;;0.90;;
15043;SDS011;7619;48.562;8.910;2023-12-20T10:19:06;3.43;;;1.10;;
15043;SDS011;7619;48.562;8.910;2023-12-20T10:21:34;1.70;;;0.90;;
15043;SDS011;7619;48.562;8.910;2023-12-20T10:24:02;2.93;;;1.10;;
15043;SDS011;7619;48.562;8.910;2023-12-20T10:26:30;1.70;;;1.23;;
15043;SDS011;7619;48.562;8.910;2023-12-20T10:29:00;7.83;;;1.30;;
15043;SDS011;7619;48.562;8.910;2023-12-20T10:31:30;1.67;;;1.20;;
15043;SDS011;7619;48.562;8.910;2023-12-20T10:33:58;2.80;;;0.90;;
15043;SDS011;7619;48.562;8.910;2023-12-20T10:36:27;1.80;;;0.77;;
15043;SDS011;7619;48.562;8.910;2023-12-20T10:38:56;0.80;;;0.80;;
15043;SDS011;7619;48.562;8.910;2023-12-20T10:41:25;2.70;;;1.00;;
15043;SDS011;7619;48.562;8.910;2023-12-20T10:43:58;1.10;;;1.00;;
15043;SDS011;7619;48.562;8.910;2023-12-20T10:46:27;1.73;;;0.80;;
15043;SDS011;7619;48.562;8.910;2023-12-20T10:48:56;1.80;;;0.80;;
15043;SDS011;7619;48.562;8.910;2023-12-20T10:51:25;2.53;;;0.90;;
15043;SDS011;7619;48.562;8.910;2023-12-20T10:53:53;2.33;;;0.80;;
15043;SDS011;7619;48.562;8.910;2023-12-20T10:56:22;3.27;;;0.83;;
15043;SDS011;7619;48.562;8.910;2023-12-20T10:58:50;1.37;;;0.70;;
15043;SDS011;7619;48.562;8.910;2023-12-20T11:01:18;3.07;;;0.90;;
15043;SDS011;7619;48.562;8.910;2023-12-20T11:03:48;8.93;;;1.13;;
15043;SDS011;7619;48.562;8.910;2023-12-20T11:06:24;9.10;;;1.53;;
15043;SDS011;7619;48.562;8.910;2023-12-20T11:08:52;13.80;;;2.03;;
15043;SDS011;7619;48.562;8.910;2023-12-20T11:11:23;3.53;;;1.50;;
15043;SDS011;7619;48.562;8.910;2023-12-20T11:13:54;3.57;;;1.13;;
15043;SDS011;7619;48.562;8.910;2023-12-20T11:16:23;2.33;;;1.00;;
15043;SDS011;7619;48.562;8.910;2023-12-20T11:18:52;5.03;;;1.40;;
15043;SDS011;7619;48.562;8.910;2023-12-20T11:21:20;2.70;;;1.03;;
15043;SDS011;7619;48.562;8.910;2023-12-20T11:23:48;1.70;;;0.90;;
15043;SDS011;7619;48.562;8.910;2023-12-20T11:26:16;6.80;;;1.13;;
15043;SDS011;7619;48.562;8.910;2023-12-20T11:28:46;2.83;;;0.90;;
15043;SDS011;7619;48.562;8.910;2023-12-20T11:31:14;5.50;;;1.03;;
15043;SDS011;7619;48.562;8.910;2023-12-20T11:33:42;4.83;;;1.00;;
15043;SDS011;7619;48.562;8.910;2023-12-20T11:36:14;2.53;;;1.10;;
15043;SDS011;7619;48.562;8.910;2023-12-20T11:38:50;4.00;;;1.33;;
15043;SDS011;7619;48.562;8.910;2023-12-20T11:41:19;5.20;;;0.93;;
15043;SDS011;7619;48.562;8.910;2023-12-20T11:43:48;1.50;;;0.80;;
15043;SDS011;7619;48.562;8.910;2023-12-20T11:46:16;2.43;;;1.40;;
15043;SDS011;7619;48.562;8.910;2023-12-20T11:48:45;1.60;;;1.13;;
15043;SDS011;7619;48.562;8.910;2023-12-20T11:51:14;2.90;;;1.60;;
15043;SDS011;7619;48.562;8.910;2023-12-20T11:53:42;2.40;;;1.03;;
15043;SDS011;7619;48.562;8.910;2023-12-20T11:58:47;2.73;;;1.00;;
15043;SDS011;7619;48.562;8.910;2023-12-20T12:01:15;3.37;;;1.10;;
15043;SDS011;7619;48.562;8.910;2023-12-20T12:03:43;0.67;;;0.67;;
15043;SDS011;7619;48.562;8.910;2023-12-20T12:06:12;2.73;;;0.70;;
15043;SDS011;7619;48.562;8.910;2023-12-20T12:08:40;2.87;;;1.07;;
15043;SDS011;7619;48.562;8.910;2023-12-20T12:11:09;2.23;;;0.83;;
15043;SDS011;7619;48.562;8.910;2023-12-20T12:13:37;3.07;;;1.10;;
15043;SDS011;7619;48.562;8.910;2023-12-20T12:16:05;2.60;;;0.90;;
15043;SDS011;7619;48.562;8.910;2023-12-20T12:18:34;2.83;;;1.10;;
15043;SDS011;7619;48.562;8.910;2023-12-20T12:21:02;1.37;;;0.70;;
15043;SDS011;7619;48.562;8.910;2023-12-20T12:23:30;4.00;;;1.13;;
15043;SDS011;7619;48.562;8.910;2023-12-20T12:25:58;4.17;;;1.53;;
15043;SDS011;7619;48.562;8.910;2023-12-20T12:28:26;5.10;;;1.43;;
15043;SDS011;7619;48.562;8.910;2023-12-20T12:30:58;0.60;;;0.60;;
15043;SDS011;7619;48.562;8.910;2023-12-20T12:33:26;2.80;;;1.33;;
15043;SDS011;7619;48.562;8.910;2023-12-20T12:35:54;3.30;;;1.10;;
15043;SDS011;7619;48.562;8.910;2023-12-20T12:38:22;4.93;;;1.23;;
15043;SDS011;7619;48.562;8.910;2023-12-20T12:40:51;2.10;;;1.20;;
15043;SDS011;7619;48.562;8.910;2023-12-20T12:43:20;4.57;;;1.60;;
15043;SDS011;7619;48.562;8.910;2023-12-20T12:45:49;4.07;;;1.37;;
15043;SDS011;7619;48.562;8.910;2023-12-20T12:48:17;4.93;;;3.33;;
15043;SDS011;7619;48.562;8.910;2023-12-20T12:50:46;5.53;;;2.33;;
15043;SDS011;7619;48.562;8.910;2023-12-20T12:53:14;3.23;;;2.63;;
15043;SDS011;7619;48.562;8.910;2023-12-20T12:55:42;8.37;;;1.90;;
15043;SDS011;7619;48.562;8.910;2023-12-20T12:58:10;1.97;;;1.60;;
15043;SDS011;7619;48.562;8.910;2023-12-20T13:00:39;3.10;;;1.33;;
15043;SDS011;7619;48.562;8.910;2023-12-20T13:03:07;3.80;;;1.40;;
15043;SDS011;7619;48.562;8.910;2023-12-20T13:05:35;1.40;;;1.30;;
15043;SDS011;7619;48.562;8.910;2023-12-20T13:08:03;3.20;;;1.70;;
15043;SDS011;7619;48.562;8.910;2023-12-20T13:10:34;4.10;;;1.20;;
15043;SDS011;7619;48.562;8.910;2023-12-20T13:13:03;1.30;;;1.10;;
15043;SDS011;7619;48.562;8.910;2023-12-20T13:15:31;2.43;;;1.20;;
15043;SDS011;7619;48.562;8.910;2023-12-20T13:17:59;4.63;;;1.30;;
15043;SDS011;7619;48.562;8.910;2023-12-20T13:20:28;2.90;;;1.20;;
15043;SDS011;7619;48.562;8.910;2023-12-20T13:22:56;5.40;;;1.73;;
15043;SDS011;7619;48.562;8.910;2023-12-20T13:25:24;6.20;;;1.60;;
15043;SDS011;7619;48.562;8.910;2023-12-20T13:27:53;2.40;;;1.20;;
15043;SDS011;7619;48.562;8.910;2023-12-20T13:30:21;2.87;;;1.20;;
15043;SDS011;7619;48.562;8.910;2023-12-20T13:32:49;1.90;;;1.13;;
15043;SDS011;7619;48.562;8.910;2023-12-20T13:35:17;5.90;;;1.50;;
15043;SDS011;7619;48.562;8.910;2023-12-20T13:37:46;4.50;;;1.27;;
15043;SDS011;7619;48.562;8.910;2023-12-20T13:40:14;2.97;;;1.13;;
15043;SDS011;7619;48.562;8.910;2023-12-20T13:42:42;1.07;;;0.80;;
15043;SDS011;7619;48.562;8.910;2023-12-20T13:45:10;6.03;;;1.37;;
15043;SDS011;7619;48.562;8.910;2023-12-20T13:47:38;3.03;;;1.47;;
15043;SDS011;7619;48.562;8.910;2023-12-20T13:50:07;2.73;;;1.00;;
15043;SDS011;7619;48.562;8.910;2023-12-20T13:52:36;1.63;;;0.77;;
15043;SDS011;7619;48.562;8.910;2023-12-20T13:55:04;2.87;;;1.07;;
15043;SDS011;7619;48.562;8.910;2023-12-20T13:57:34;5.20;;;1.33;;
15043;SDS011;7619;48.562;8.910;2023-12-20T14:00:05;1.67;;;0.87;;
15043;SDS011;7619;48.562;8.910;2023-12-20T14:02:35;1.10;;;1.00;;
15043;SDS011;7619;48.562;8.910;2023-12-20T14:05:04;3.67;;;1.20;;
15043;SDS011;7619;48.562;8.910;2023-12-20T14:07:33;3.47;;;1.17;;
15043;SDS011;7619;48.562;8.910;2023-12-20T14:10:01;4.43;;;1.20;;
15043;SDS011;7619;48.562;8.910;2023-12-20T14:12:29;1.90;;;0.90;;
15043;SDS011;7619;48.562;8.910;2023-12-20T14:15:00;2.33;;;0.90;;
15043;SDS011;7619;48.562;8.910;2023-12-20T14:17:28;3.77;;;1.47;;
15043;SDS011;7619;48.562;8.910;2023-12-20T14:19:56;4.07;;;1.37;;
15043;SDS011;7619;48.562;8.910;2023-12-20T14:22:24;2.10;;;1.20;;
15043;SDS011;7619;48.562;8.910;2023-12-20T14:24:52;3.80;;;1.57;;
15043;SDS011;7619;48.562;8.910;2023-12-20T14:27:21;2.27;;;1.47;;
15043;SDS011;7619;48.562;8.910;2023-12-20T14:29:50;5.60;;;2.37;;
15043;SDS011;7619;48.562;8.910;2023-12-20T14:32:18;4.83;;;2.17;;
15043;SDS011;7619;48.562;8.910;2023-12-20T14:34:46;6.73;;;1.53;;
15043;SDS011;7619;48.562;8.910;2023-12-20T14:37:14;3.50;;;0.77;;
15043;SDS011;7619;48.562;8.910;2023-12-20T14:39:43;6.33;;;1.33;;
15043;SDS011;7619;48.562;8.910;2023-12-20T14:42:12;1.50;;;1.10;;
15043;SDS011;7619;48.562;8.910;2023-12-20T14:44:40;6.13;;;1.20;;
15043;SDS011;7619;48.562;8.910;2023-12-20T14:47:09;2.00;;;1.43;;
15043;SDS011;7619;48.562;8.910;2023-12-20T14:49:37;2.37;;;1.00;;
15043;SDS011;7619;48.562;8.910;2023-12-20T14:52:05;2.47;;;1.60;;
15043;SDS011;7619;48.562;8.910;2023-12-20T14:54:33;5.40;;;1.50;;
15043;SDS011;7619;48.562;8.910;2023-12-20T14:57:01;5.30;;;1.60;;
15043;SDS011;7619;48.562;8.910;2023-12-20T14:59:29;8.90;;;1.50;;
15043;SDS011;7619;48.562;8.910;2023-12-20T15:01:57;4.37;;;1.20;;
15043;SDS011;7619;48.562;8.910;2023-12-20T15:04:25;3.97;;;1.67;;
15043;SDS011;7619;48.562;8.910;2023-12-20T15:06:55;6.23;;;1.13;;
15043;SDS011;7619;48.562;8.910;2023-12-20T15:09:23;1.57;;;1.03;;